Time;durP1;ratioP1;P1;durP2;ratioP2;P2;SDS_P1;SDS_P2;PMS_P1;PMS_P2;Temp;Humidity;BMP_temperature;BMP_pressure;BME280_temperature;BME280_humidity;BME280_pressure;Samples;Min_cycle;Max_cycle;Signal;HPM_P1;HPM_P2
2023/07/17 00:00:02;;;;;;;;;;;24.60;65.40;;;24.75;41.66;98845.44;4989053;28;123769;-80
2023/07/17 00:02:28;;;;;;;;;;;24.50;65.40;;;24.74;41.49;98841.78;4985336;28;114455;-80
2023/07/17 00:04:56;;;;;;;;;;;24.50;65.60;;;24.74;41.74;98843.78;4990129;28;112794;-80
2023/07/17 00:07:23;;;;;;;;;;;24.50;66.50;;;24.74;41.94;98849.44;4988158;28;124182;-80
2023/07/17 00:09:49;;;;;;;;;;;24.50;65.90;;;24.74;41.89;98850.25;4988278;28;124370;-80
2023/07/17 00:12:16;;;;;;;;;;;24.40;65.90;;;24.75;41.96;98853.91;4987770;28;114340;-80
2023/07/17 00:14:44;;;;;;;;;;;24.50;66.10;;;24.74;41.87;98849.44;4987696;28;113386;-79
2023/07/17 00:17:11;;;;;;;;;;;24.50;66.30;;;24.75;41.97;98842.59;4988387;28;124215;-79
2023/07/17 00:19:38;;;;;;;;;;;24.50;66.40;;;24.75;41.58;98845.44;4964285;28;122922;-80
2023/07/17 00:22:05;;;;;;;;;;;24.50;66.50;;;24.73;41.92;98851.47;4987067;28;114359;-79
2023/07/17 00:24:34;;;;;;;;;;;24.40;66.50;;;24.69;41.56;98854.31;4987261;28;114295;-79
2023/07/17 00:27:01;;;;;;;;;;;24.50;66.50;;;24.67;41.71;98853.09;4987012;28;124787;-80
2023/07/17 00:29:30;;;;;;;;;;;24.40;66.30;;;24.66;41.92;98835.34;4987700;28;123637;-79
2023/07/17 00:31:57;;;;;;;;;;;24.40;66.30;;;24.65;41.70;98830.09;4988486;28;114450;-80
2023/07/17 00:34:23;;;;;;;;;;;24.40;66.50;;;24.65;41.78;98832.91;4987558;28;113818;-79
2023/07/17 00:36:51;;;;;;;;;;;24.40;66.60;;;24.66;41.98;98826.03;4983543;28;125327;-78
2023/07/17 00:39:20;;;;;;;;;;;24.40;66.80;;;24.66;41.97;98831.69;4988124;28;123952;-80
2023/07/17 00:41:49;;;;;;;;;;;24.40;67.00;;;24.65;42.19;98838.56;4987048;28;115395;-79
2023/07/17 00:44:16;;;;;;;;;;;24.40;67.00;;;24.64;42.19;98840.59;4988438;28;114702;-80
2023/07/17 00:46:42;;;;;;;;;;;24.30;66.80;;;24.61;42.06;98837.75;4986900;28;124266;-80
2023/07/17 00:49:12;;;;;;;;;;;24.30;66.70;;;24.60;41.66;98833.34;4981071;28;123973;-78
2023/07/17 00:51:40;;;;;;;;;;;24.30;66.60;;;24.57;41.75;98826.47;4989208;28;114072;-78
2023/07/17 00:54:06;;;;;;;;;;;24.30;66.60;;;24.58;42.08;98830.09;4969388;28;112584;-80
2023/07/17 00:56:38;;;;;;;;;;;24.30;66.70;;;24.55;42.21;98828.88;4986503;28;124208;-79
2023/07/17 00:59:05;;;;;;;;;;;24.30;66.80;;;24.52;41.84;98832.53;4988435;28;123684;-80
2023/07/17 01:01:32;;;;;;;;;;;24.30;66.80;;;24.51;42.02;98838.59;4988245;28;114642;-80
2023/07/17 01:04:01;;;;;;;;;;;24.20;66.70;;;24.46;41.85;98839.81;4971433;28;113120;-80
2023/07/17 01:06:30;;;;;;;;;;;24.20;66.60;;;24.43;41.89;98849.06;4988416;28;124265;-80
2023/07/17 01:09:00;;;;;;;;;;;24.20;66.60;;;24.37;41.90;98837.38;4973509;28;122868;-80
2023/07/17 01:11:31;;;;;;;;;;;24.20;66.50;;;24.35;41.93;98844.63;4958704;28;114123;-81
2023/07/17 01:13:57;;;;;;;;;;;24.10;66.50;;;24.33;42.16;98841.41;4990404;28;113552;-81
2023/07/17 01:16:25;;;;;;;;;;;24.10;66.60;;;24.33;42.18;98835.75;4990635;28;124760;-81
2023/07/17 01:18:52;;;;;;;;;;;24.10;66.60;;;24.32;42.07;98828.50;4985795;28;124314;-80
2023/07/17 01:21:21;;;;;;;;;;;24.10;66.70;;;24.28;41.97;98844.63;5001572;28;114615;-81
2023/07/17 01:23:47;;;;;;;;;;;24.10;66.70;;;24.20;41.96;98855.91;4980355;28;113959;-80
2023/07/17 01:26:18;;;;;;;;;;;24.00;66.60;;;24.16;42.02;98872.06;4978717;28;124276;-81
2023/07/17 01:28:45;;;;;;;;;;;24.00;66.70;;;24.12;42.31;98876.88;4976876;28;124051;-80
2023/07/17 01:31:14;;;;;;;;;;;23.90;66.80;;;24.07;42.28;98856.72;4953999;28;115293;-80
2023/07/17 01:33:43;;;;;;;;;;;23.90;66.80;;;24.03;42.35;98859.53;4977638;28;114702;-81
2023/07/17 01:36:09;;;;;;;;;;;23.80;66.80;;;24.02;42.43;98855.91;4986645;28;124241;-81
2023/07/17 01:38:35;;;;;;;;;;;23.80;67.00;;;24.03;42.35;98853.91;4987751;28;124436;-79
2023/07/17 01:41:04;;;;;;;;;;;23.80;67.00;;;24.03;42.63;98853.91;4988607;28;113959;-78
2023/07/17 01:43:32;;;;;;;;;;;23.80;67.10;;;24.02;42.13;98843.81;4989882;28;112943;-78
2023/07/17 01:45:59;;;;;;;;;;;23.80;67.10;;;24.03;42.50;98856.72;4986896;28;124003;-78
2023/07/17 01:48:25;;;;;;;;;;;23.70;67.10;;;24.02;42.41;98855.13;4985694;28;124310;-78
2023/07/17 01:50:51;;;;;;;;;;;23.80;67.20;;;23.98;42.26;98859.94;4987165;28;114401;-78
2023/07/17 01:53:22;;;;;;;;;;;23.70;67.20;;;23.94;42.26;98854.31;4987821;28;113451;-79
2023/07/17 01:55:51;;;;;;;;;;;23.70;67.20;;;23.92;42.48;98859.53;4986647;28;124128;-78
2023/07/17 01:58:17;;;;;;;;;;;23.70;67.30;;;23.90;42.35;98872.44;4989223;28;123741;-78
2023/07/17 02:00:43;;;;;;;;;;;23.70;67.40;;;23.89;42.49;98868.00;4988364;28;114348;-78
2023/07/17 02:03:10;;;;;;;;;;;23.70;67.40;;;23.88;42.66;98864.34;4988859;28;114283;-78
2023/07/17 02:05:36;;;;;;;;;;;23.60;67.40;;;23.88;42.68;98866.38;4988048;28;124244;-79
2023/07/17 02:08:03;;;;;;;;;;;23.60;67.50;;;23.87;42.79;98847.84;4988162;28;123850;-79
2023/07/17 02:10:29;;;;;;;;;;;23.60;67.50;;;23.87;42.43;98847.84;4989863;28;114192;-79
2023/07/17 02:12:56;;;;;;;;;;;23.60;67.60;;;23.84;42.53;98851.47;4990670;28;113443;-78
2023/07/17 02:15:22;;;;;;;;;;;23.60;67.60;;;23.80;42.64;98854.25;4987298;28;123779;-78
2023/07/17 02:17:48;;;;;;;;;;;23.60;67.80;;;23.76;42.75;98854.25;4969256;28;122789;-79
2023/07/17 02:20:17;;;;;;;;;;;23.60;67.80;;;23.74;42.95;98867.16;4985034;28;115754;-78
2023/07/17 02:22:45;;;;;;;;;;;23.50;67.90;;;23.71;42.89;98868.75;4979950;28;114190;-82
2023/07/17 02:25:11;;;;;;;;;;;23.50;68.00;;;23.68;43.12;98858.25;4987930;28;124165;-78
2023/07/17 02:27:38;;;;;;;;;;;23.50;68.10;;;23.66;43.16;98862.66;4985908;28;123860;-78
2023/07/17 02:30:05;;;;;;;;;;;23.50;68.30;;;23.62;43.22;98864.69;4988200;28;114477;-79
2023/07/17 02:32:31;;;;;;;;;;;23.40;68.40;;;23.61;43.37;98872.31;4987319;28;113835;-78
2023/07/17 02:34:57;;;;;;;;;;;23.40;68.50;;;23.61;43.18;98880.78;4986971;28;124351;-78
2023/07/17 02:37:24;;;;;;;;;;;23.40;68.70;;;23.62;43.31;98873.16;4986819;28;124289;-78
2023/07/17 02:39:50;;;;;;;;;;;23.40;68.70;;;23.60;43.38;98873.53;4982448;28;114341;-79
2023/07/17 02:42:16;;;;;;;;;;;23.40;68.80;;;23.59;43.42;98877.56;4985219;28;114343;-79
2023/07/17 02:44:46;;;;;;;;;;;23.40;69.00;;;23.60;43.58;98879.19;4974642;28;123749;-78
2023/07/17 02:47:13;;;;;;;;;;;23.40;69.10;;;23.59;43.62;98878.38;4992924;28;122828;-79
2023/07/17 02:49:40;;;;;;;;;;;23.40;69.30;;;23.62;43.50;98878.78;4992182;28;114524;-79
2023/07/17 02:52:07;;;;;;;;;;;23.40;69.30;;;23.59;43.53;98886.03;4990585;28;114157;-79
2023/07/17 02:54:36;;;;;;;;;;;23.40;69.30;;;23.60;43.63;98885.63;4976263;28;123282;-80
2023/07/17 02:57:08;;;;;;;;;;;23.40;69.30;;;23.61;43.59;98903.34;4983533;28;123324;-79
2023/07/17 02:59:35;;;;;;;;;;;23.40;70.20;;;23.59;43.55;98889.66;4969553;28;113389;-79
2023/07/17 03:02:04;;;;;;;;;;;23.40;69.50;;;23.61;43.75;98897.72;4971874;28;113880;-79
2023/07/17 03:04:30;;;;;;;;;;;23.40;69.60;;;23.64;43.68;98898.94;4984802;28;124455;-80
2023/07/17 03:06:59;;;;;;;;;;;23.40;69.70;;;23.66;43.63;98899.34;4990876;28;124655;-79
2023/07/17 03:09:26;;;;;;;;;;;23.40;69.80;;;23.66;43.84;98900.16;4990712;28;116135;-79
2023/07/17 03:11:53;;;;;;;;;;;23.40;70.00;;;23.69;43.79;98904.97;4990794;28;114840;-79
2023/07/17 03:14:19;;;;;;;;;;;23.40;70.10;;;23.69;43.77;98904.19;4988304;28;124442;-79
2023/07/17 03:16:45;;;;;;;;;;;23.40;70.20;;;23.69;43.74;98904.97;4989200;28;124062;-79
2023/07/17 03:19:16;;;;;;;;;;;23.40;70.20;;;23.70;43.71;98909.44;4992454;28;113285;-79
2023/07/17 03:21:42;;;;;;;;;;;23.40;70.20;;;23.71;43.74;98911.06;4990411;28;113754;-80
2023/07/17 03:24:09;;;;;;;;;;;23.40;70.20;;;23.71;43.69;98913.91;4988457;28;125168;-79
2023/07/17 03:26:35;;;;;;;;;;;23.40;70.20;;;23.70;43.83;98912.25;4991104;28;124573;-79
2023/07/17 03:29:01;;;;;;;;;;;23.40;70.20;;;23.70;43.81;98928.38;4990514;28;116692;-79
2023/07/17 03:31:28;;;;;;;;;;;23.40;70.30;;;23.70;43.82;98917.91;4992406;28;113060;-79
2023/07/17 03:33:54;;;;;;;;;;;23.40;70.40;;;23.71;43.88;98922.34;4988791;28;125071;-79
2023/07/17 03:36:20;;;;;;;;;;;23.40;70.40;;;23.71;43.81;98913.06;4989516;28;124146;-79
2023/07/17 03:38:46;;;;;;;;;;;23.40;70.50;;;23.72;43.67;98915.53;4990768;28;115852;-79
2023/07/17 03:41:13;;;;;;;;;;;23.40;70.50;;;23.72;43.68;98907.06;4992039;28;113168;-80
2023/07/17 03:43:39;;;;;;;;;;;23.40;70.50;;;23.73;43.82;98905.84;4987467;28;124415;-79
2023/07/17 03:46:05;;;;;;;;;;;23.40;70.50;;;23.74;43.83;98918.75;4989762;28;124115;-79
2023/07/17 03:48:32;;;;;;;;;;;23.40;70.60;;;23.73;44.02;98917.13;4990612;28;115534;-79
2023/07/17 03:50:58;;;;;;;;;;;23.40;71.10;;;23.70;44.07;98917.09;4989722;28;113693;-79
2023/07/17 03:53:24;;;;;;;;;;;23.40;71.10;;;23.67;44.04;98917.88;4988954;28;124441;-79
2023/07/17 03:55:50;;;;;;;;;;;23.40;71.10;;;23.63;44.22;98917.88;4991200;28;122890;-79
2023/07/17 03:58:17;;;;;;;;;;;23.40;71.20;;;23.61;44.17;98925.91;4990677;28;115331;-79
2023/07/17 04:00:43;;;;;;;;;;;23.40;71.30;;;23.58;44.36;98918.25;5008658;28;114724;-79
2023/07/17 04:03:12;;;;;;;;;;;23.40;71.40;;;23.55;44.13;98921.88;4988801;28;123928;-79
2023/07/17 04:05:38;;;;;;;;;;;23.30;71.30;;;23.55;44.43;98930.34;4989009;28;123910;-79
2023/07/17 04:08:04;;;;;;;;;;;23.30;71.30;;;23.55;44.41;98921.88;4990435;28;114424;-80
2023/07/17 04:10:31;;;;;;;;;;;23.30;71.50;;;23.58;44.54;98933.16;4991529;28;112854;-79
2023/07/17 04:12:57;;;;;;;;;;;23.30;71.60;;;23.58;44.25;98935.19;4988458;28;124041;-79
2023/07/17 04:15:23;;;;;;;;;;;23.30;71.50;;;23.55;44.08;98928.31;4975230;28;123078;-79
2023/07/17 04:17:49;;;;;;;;;;;23.30;71.40;;;23.55;44.14;98933.97;4988749;28;114522;-80
2023/07/17 04:20:19;;;;;;;;;;;23.30;71.30;;;23.56;44.00;98940.41;4991025;28;113700;-80
2023/07/17 04:22:45;;;;;;;;;;;23.20;71.20;;;23.55;43.64;98942.41;4988089;28;124437;-79
2023/07/17 04:25:11;;;;;;;;;;;23.30;71.10;;;23.54;44.00;98942.84;4987871;28;124786;-79
2023/07/17 04:27:37;;;;;;;;;;;23.20;71.00;;;23.54;43.94;98942.84;4987772;28;114306;-80
2023/07/17 04:30:04;;;;;;;;;;;23.20;71.00;;;23.54;43.95;98937.19;4981034;28;113762;-80
2023/07/17 04:32:33;;;;;;;;;;;23.20;71.00;;;23.51;43.89;98952.88;4986253;28;124519;-79
2023/07/17 04:35:02;;;;;;;;;;;23.20;71.00;;;23.49;43.84;98957.31;4988924;28;124086;-79
2023/07/17 04:37:30;;;;;;;;;;;23.20;70.90;;;23.46;43.82;98960.94;4975244;28;114282;-79
2023/07/17 04:39:57;;;;;;;;;;;23.20;70.90;;;23.42;43.94;98952.44;4976212;28;114399;-79
2023/07/17 04:42:23;;;;;;;;;;;23.20;70.90;;;23.42;43.95;98962.91;4988388;28;124407;-78
2023/07/17 04:44:49;;;;;;;;;;;23.20;70.90;;;23.42;43.87;98963.72;4987031;28;124115;-79
2023/07/17 04:47:16;;;;;;;;;;;23.20;70.90;;;23.42;43.99;98963.72;4987518;28;115245;-79
2023/07/17 04:49:42;;;;;;;;;;;23.20;70.90;;;23.44;43.98;98966.94;4980923;28;114683;-79
2023/07/17 04:52:09;;;;;;;;;;;23.20;71.10;;;23.47;44.21;98966.16;4979355;28;124446;-79
2023/07/17 04:54:40;;;;;;;;;;;23.20;71.50;;;23.54;44.43;98965.41;4990230;28;123969;-79
2023/07/17 04:57:06;;;;;;;;;;;23.20;71.80;;;23.55;44.41;98955.72;4990362;28;113317;-79
2023/07/17 04:59:33;;;;;;;;;;;23.20;72.10;;;23.60;44.53;98955.34;4987896;28;113674;-79
2023/07/17 05:02:01;;;;;;;;;;;23.20;72.20;;;23.65;44.52;98960.59;5001137;28;124224;-79
2023/07/17 05:04:28;;;;;;;;;;;23.30;72.50;;;23.72;44.40;98957.03;4986531;28;124595;-79
2023/07/17 05:06:56;;;;;;;;;;;23.30;73.10;;;23.77;44.29;98962.28;4986900;28;114686;-79
2023/07/17 05:09:22;;;;;;;;;;;23.40;72.40;;;23.80;44.01;98956.66;4989129;28;113750;-79
2023/07/17 05:11:48;;;;;;;;;;;23.40;72.10;;;23.83;44.31;98957.06;4987880;28;124299;-79
2023/07/17 05:14:14;;;;;;;;;;;23.40;72.40;;;23.86;43.98;98959.91;4987342;28;124620;-79
2023/07/17 05:16:41;;;;;;;;;;;23.50;72.40;;;23.87;44.12;98955.06;5003996;28;115032;-79
2023/07/17 05:19:07;;;;;;;;;;;23.50;72.20;;;23.92;44.37;98965.97;4989815;28;114499;-82
2023/07/17 05:21:33;;;;;;;;;;;23.50;72.30;;;23.94;43.95;98960.75;4991528;28;124899;-79
2023/07/17 05:24:02;;;;;;;;;;;23.50;72.00;;;23.94;43.67;98964.38;4986790;28;124141;-80
2023/07/17 05:26:29;;;;;;;;;;;23.50;71.80;;;23.98;43.61;98972.84;4989040;28;114618;-79
2023/07/17 05:28:57;;;;;;;;;;;23.60;71.80;;;24.01;43.92;98967.19;4987734;28;113712;-80
2023/07/17 05:31:24;;;;;;;;;;;23.60;71.80;;;24.03;43.68;98964.00;4986783;28;124824;-77
2023/07/17 05:33:50;;;;;;;;;;;25.30;73.50;;;24.03;43.84;98959.13;4976875;28;123885;-78
2023/07/17 05:36:18;;;;;;;;;;;23.70;72.10;;;24.03;43.78;98966.81;4984950;28;115719;-78
2023/07/17 05:38:45;;;;;;;;;;;23.60;72.10;;;24.04;43.73;98974.06;4989946;28;113687;-78
2023/07/17 05:41:13;;;;;;;;;;;23.70;72.30;;;24.07;43.72;98975.28;4989389;28;123542;-78
2023/07/17 05:43:39;;;;;;;;;;;23.70;72.40;;;24.10;44.03;98974.47;4987238;28;123862;-78
2023/07/17 05:46:06;;;;;;;;;;;23.70;72.50;;;24.10;43.94;98968.81;4988754;28;115153;-79
2023/07/17 05:48:32;;;;;;;;;;;23.70;72.50;;;24.09;44.12;98981.34;4990808;28;113275;-78
2023/07/17 05:50:58;;;;;;;;;;;23.70;72.50;;;24.03;44.16;98981.72;4987977;28;124052;-79
2023/07/17 05:53:25;;;;;;;;;;;23.70;72.60;;;23.99;44.45;98985.72;4986827;28;123834;-77
2023/07/17 05:55:53;;;;;;;;;;;23.70;72.70;;;23.95;44.70;98979.28;4988025;28;114980;-77
2023/07/17 05:58:20;;;;;;;;;;;23.60;73.00;;;23.95;44.50;98991.38;4986448;28;113757;-78
2023/07/17 06:00:46;;;;;;;;;;;23.60;73.10;;;23.98;44.50;98984.13;4972268;28;123286;-78
2023/07/17 06:03:13;;;;;;;;;;;23.60;73.30;;;24.02;44.66;98993.44;4968254;28;122788;-78
2023/07/17 06:05:41;;;;;;;;;;;23.70;73.60;;;24.05;44.55;98992.63;4987971;28;114585;-79
2023/07/17 06:08:08;;;;;;;;;;;23.70;73.60;;;24.09;44.52;98995.44;4970697;28;112958;-78
2023/07/17 06:10:35;;;;;;;;;;;23.70;73.60;;;24.15;44.22;99002.31;4985463;28;124511;-78
2023/07/17 06:13:02;;;;;;;;;;;23.70;73.60;;;24.20;44.21;99007.59;4986958;28;126783;-78
2023/07/17 06:15:30;;;;;;;;;;;23.80;73.70;;;24.25;44.12;99004.38;4987588;28;114204;-78
2023/07/17 06:17:59;;;;;;;;;;;23.80;73.50;;;24.30;44.19;99011.66;4987489;28;114354;-78
2023/07/17 06:20:30;;;;;;;;;;;23.90;73.40;;;24.35;43.71;99008.44;4990240;28;124068;-77
2023/07/17 06:22:56;;;;;;;;;;;23.90;73.10;;;24.38;43.70;99001.97;4973082;28;124801;-78
2023/07/17 06:25:26;;;;;;;;;;;23.90;72.90;;;24.44;43.58;99003.22;4985318;28;115530;-77
2023/07/17 06:27:52;;;;;;;;;;;24.00;72.80;;;24.52;43.50;99007.66;4988965;28;113708;-78
2023/07/17 06:30:18;;;;;;;;;;;24.00;72.80;;;24.60;43.41;99003.66;4987386;28;124677;-78
2023/07/17 06:32:45;;;;;;;;;;;24.10;72.50;;;24.67;42.98;99002.84;4987875;28;123358;-78
2023/07/17 06:35:11;;;;;;;;;;;24.20;72.40;;;24.74;42.95;99004.88;4988863;28;113392;-79
2023/07/17 06:37:37;;;;;;;;;;;24.20;71.90;;;24.79;42.42;99010.13;4986090;28;113792;-79
2023/07/17 06:40:07;;;;;;;;;;;24.30;71.60;;;24.84;42.39;99007.69;4991915;28;123759;-79
2023/07/17 06:42:34;;;;;;;;;;;24.30;71.30;;;24.89;42.14;99007.28;4966260;28;122929;-78
2023/07/17 06:45:02;;;;;;;;;;;24.30;70.90;;;24.93;41.93;99021.41;4986526;28;114416;-78
2023/07/17 06:47:28;;;;;;;;;;;24.40;70.50;;;24.95;41.42;99007.69;4986745;28;113803;-79
2023/07/17 06:49:55;;;;;;;;;;;24.50;70.00;;;24.96;41.53;99009.34;4985980;28;124608;-79
2023/07/17 06:52:24;;;;;;;;;;;24.50;69.60;;;24.99;41.24;99008.50;4987255;28;125096;-79
2023/07/17 06:54:50;;;;;;;;;;;24.50;69.40;;;25.04;40.53;99008.13;4985009;28;114294;-79
2023/07/17 06:57:16;;;;;;;;;;;24.50;68.60;;;25.04;40.64;99010.94;4987450;28;114426;-79
2023/07/17 06:59:42;;;;;;;;;;;24.50;68.40;;;25.06;40.53;99010.50;4986672;28;124923;-79
2023/07/17 07:02:09;;;;;;;;;;;24.50;68.20;;;25.10;40.58;98992.34;4985882;28;123238;-79
2023/07/17 07:04:35;;;;;;;;;;;24.60;68.10;;;25.16;40.74;99000.44;4986012;28;115078;-78
2023/07/17 07:07:01;;;;;;;;;;;24.70;68.20;;;25.25;40.16;99003.66;4986067;28;113957;-78
2023/07/17 07:09:27;;;;;;;;;;;24.70;67.70;;;25.31;39.74;98993.56;4986085;28;124247;-78
2023/07/17 07:11:54;;;;;;;;;;;24.80;67.20;;;25.35;39.32;99002.84;4985215;28;123122;-78
2023/07/17 07:14:20;;;;;;;;;;;24.90;66.70;;;25.41;38.50;99009.69;4985971;28;115152;-78
2023/07/17 07:16:46;;;;;;;;;;;24.90;65.30;;;25.45;38.49;99010.50;4987155;28;114975;-78
2023/07/17 07:19:13;;;;;;;;;;;24.90;64.70;;;25.45;37.14;99006.88;4988194;28;123336;-78
2023/07/17 07:21:40;;;;;;;;;;;25.00;63.10;;;25.44;37.45;99005.22;4986484;28;124187;-78
2023/07/17 07:24:09;;;;;;;;;;;24.90;62.90;;;25.46;37.31;99000.78;4986579;28;114210;-78
2023/07/17 07:26:38;;;;;;;;;;;25.00;63.00;;;25.55;37.54;99011.69;4990850;28;113370;-78
2023/07/17 07:29:04;;;;;;;;;;;25.10;63.40;;;25.62;37.14;99011.66;4988404;28;124686;-78
2023/07/17 07:31:33;;;;;;;;;;;25.10;62.60;;;25.68;37.17;99003.53;4989675;28;123666;-78
2023/07/17 07:33:59;;;;;;;;;;;25.20;62.70;;;25.75;37.69;98997.88;4988328;28;115088;-78
2023/07/17 07:36:28;;;;;;;;;;;25.20;62.80;;;25.83;37.55;99005.13;4989318;28;113641;-78
2023/07/17 07:38:56;;;;;;;;;;;25.30;63.10;;;25.92;36.43;99007.53;4990990;28;124043;-78
2023/07/17 07:41:23;;;;;;;;;;;25.40;61.70;;;25.98;35.57;99015.19;4988747;28;124141;-78
2023/07/17 07:43:51;;;;;;;;;;;25.40;60.40;;;26.02;35.29;99011.53;4973868;28;113634;-78
2023/07/17 07:46:18;;;;;;;;;;;25.50;59.70;;;26.06;35.34;99012.31;4974109;28;113935;-78
2023/07/17 07:48:44;;;;;;;;;;;25.50;59.60;;;26.10;34.46;99025.25;4991141;28;124900;-78
2023/07/17 07:51:10;;;;;;;;;;;25.60;58.70;;;26.11;34.13;99017.56;4989702;28;124303;-78
2023/07/17 07:53:36;;;;;;;;;;;25.60;57.90;;;26.13;34.58;99024.41;4988989;28;114042;-79
2023/07/17 07:56:06;;;;;;;;;;;25.70;57.90;;;26.15;34.44;99004.19;4991814;28;112627;-78
2023/07/17 07:58:34;;;;;;;;;;;25.70;57.30;;;26.20;33.88;99020.75;4972195;28;123470;-78
2023/07/17 08:01:03;;;;;;;;;;;25.70;57.10;;;26.26;33.92;99021.94;4974528;28;123304;-78
2023/07/17 08:03:29;;;;;;;;;;;25.80;56.90;;;26.30;34.40;99028.38;4973192;28;114381;-78
2023/07/17 08:05:55;;;;;;;;;;;25.80;57.00;;;26.35;34.11;99022.28;4999245;28;114866;-79
2023/07/17 08:08:22;;;;;;;;;;;25.80;57.00;;;26.37;33.84;99017.00;4990524;28;123259;-78
2023/07/17 08:10:54;;;;;;;;;;;25.90;56.90;;;26.41;34.11;99017.81;4967445;28;123546;-78
2023/07/17 08:13:21;;;;;;;;;;;25.90;56.90;;;26.43;32.57;99026.66;4981908;28;114961;-78
2023/07/17 08:15:47;;;;;;;;;;;26.00;55.00;;;26.46;32.05;99019.38;4974604;28;112728;-78
2023/07/17 08:18:16;;;;;;;;;;;26.00;53.80;;;26.50;31.74;99020.16;4976083;28;124979;-79
2023/07/17 08:20:42;;;;;;;;;;;26.00;53.00;;;26.54;31.76;99011.66;4986245;28;124293;-79
2023/07/17 08:23:09;;;;;;;;;;;26.00;53.10;;;26.58;31.32;99015.28;4987339;28;114862;-78
2023/07/17 08:25:35;;;;;;;;;;;26.10;52.90;;;26.62;31.70;99013.22;4989469;28;114389;-78
2023/07/17 08:28:02;;;;;;;;;;;24.80;52.00;;;26.66;31.48;99016.84;4969091;28;124472;-78
2023/07/17 08:30:28;;;;;;;;;;;26.20;53.10;;;26.71;31.59;99018.44;4981096;28;124019;-79
2023/07/17 08:32:54;;;;;;;;;;;26.20;53.10;;;26.79;31.83;99020.00;4982792;28;114392;-78
2023/07/17 08:35:21;;;;;;;;;;;26.30;52.90;;;26.85;31.54;99016.28;4965656;28;112802;-78
2023/07/17 08:37:47;;;;;;;;;;;26.30;52.40;;;26.94;30.95;99017.84;5004010;28;124311;-78
2023/07/17 08:40:13;;;;;;;;;;;26.40;52.30;;;26.95;30.64;99027.94;4988202;28;124024;-78
2023/07/17 08:42:47;;;;;;;;;;;26.50;51.10;;;26.92;29.72;99018.28;4973349;28;113442;-79
2023/07/17 08:45:14;;;;;;;;;;;26.40;50.00;;;26.90;30.36;99015.06;4989890;28;113884;-78
2023/07/17 08:47:40;;;;;;;;;;;26.40;50.30;;;26.95;30.23;99022.28;4981952;28;123681;-79
2023/07/17 08:50:07;;;;;;;;;;;26.40;49.70;;;26.95;30.03;99010.94;4986640;28;123651;-79
2023/07/17 08:52:34;;;;;;;;;;;26.50;49.90;;;26.98;30.04;99015.81;4990146;28;114984;-79
2023/07/17 08:55:00;;;;;;;;;;;26.50;49.80;;;27.04;29.80;99014.13;4986986;28;114783;-79
2023/07/17 08:57:29;;;;;;;;;;;26.60;49.60;;;27.05;29.36;99041.25;4986242;28;124760;-78
2023/07/17 08:59:55;;;;;;;;;;;26.60;48.40;;;26.98;29.28;99042.13;4968505;28;123131;-78
2023/07/17 09:02:22;;;;;;;;;;;26.60;47.90;;;26.90;29.52;99025.59;4976779;28;114442;-78
2023/07/17 09:04:48;;;;;;;;;;;26.50;48.40;;;26.86;29.58;99032.06;4987381;28;113761;-78
2023/07/17 09:07:14;;;;;;;;;;;26.50;48.80;;;26.92;30.08;99028.78;4986599;28;125952;-79
2023/07/17 09:09:41;;;;;;;;;;;26.50;49.10;;;26.98;29.66;99032.81;4991116;28;124587;-79
2023/07/17 09:12:11;;;;;;;;;;;26.50;48.90;;;27.02;29.71;99033.56;4989928;28;113596;-78
2023/07/17 09:14:38;;;;;;;;;;;26.60;49.30;;;27.05;29.79;99027.06;4988358;28;113963;-79
2023/07/17 09:17:07;;;;;;;;;;;26.60;49.20;;;27.10;30.04;99018.09;4986513;28;125259;-78
2023/07/17 09:19:35;;;;;;;;;;;26.70;49.40;;;27.13;30.04;99022.94;4991448;28;123428;-78
2023/07/17 09:22:02;;;;;;;;;;;26.70;49.40;;;27.15;30.34;99034.69;4986769;28;114677;-78
2023/07/17 09:24:31;;;;;;;;;;;26.70;49.60;;;27.11;30.35;99022.56;4986449;28;113550;-78
2023/07/17 09:26:57;;;;;;;;;;;26.70;49.70;;;27.07;30.34;99025.41;4980155;28;124274;-78
2023/07/17 09:29:24;;;;;;;;;;;26.70;49.70;;;27.04;30.17;99025.47;4968948;28;122908;-78
2023/07/17 09:31:50;;;;;;;;;;;26.70;49.60;;;27.02;30.40;99027.91;4979375;28;114463;-79
2023/07/17 09:34:19;;;;;;;;;;;26.70;49.60;;;27.02;30.36;99019.41;4987980;28;112810;-78
2023/07/17 09:36:50;;;;;;;;;;;26.70;49.60;;;27.07;30.50;99018.94;4982661;28;124538;-78
2023/07/17 09:39:16;;;;;;;;;;;26.70;49.80;;;27.09;30.59;99025.00;4980979;28;124400;-78
2023/07/17 09:41:45;;;;;;;;;;;26.70;49.80;;;27.10;30.56;99018.91;4988295;28;114266;-78
2023/07/17 09:44:18;;;;;;;;;;;26.80;49.90;;;27.06;30.27;99018.16;4985394;28;115031;-78
2023/07/17 09:46:45;;;;;;;;;;;26.70;49.80;;;27.06;30.51;99023.81;4984364;28;124251;-78
2023/07/17 09:49:12;;;;;;;;;;;26.70;50.00;;;27.05;30.52;99013.69;4988907;28;124086;-78
2023/07/17 09:51:38;;;;;;;;;;;26.70;50.10;;;27.07;30.75;99018.94;4985111;28;114655;-79
2023/07/17 09:54:05;;;;;;;;;;;26.70;50.00;;;27.08;30.84;99017.72;4972717;28;112748;-78
2023/07/17 09:56:32;;;;;;;;;;;26.70;50.20;;;27.13;30.91;99013.63;4986463;28;124228;-78
2023/07/17 09:59:14;;;;;;;;;;;26.80;50.20;;;27.14;30.64;99012.41;4968815;28;123661;-78
2023/07/17 10:01:47;;;;;;;;;;;26.80;50.20;;;27.18;30.72;99016.03;4967768;28;113501;-79
2023/07/17 10:04:17;;;;;;;;;;;26.80;50.20;;;27.19;30.76;99020.47;4968369;28;112709;-78
2023/07/17 10:06:44;;;;;;;;;;;26.80;50.00;;;27.20;30.65;99017.22;4962030;28;123356;-79
2023/07/17 10:09:15;;;;;;;;;;;26.90;50.70;;;27.21;30.62;99013.16;4986136;28;123854;-79
2023/07/17 10:11:44;;;;;;;;;;;26.80;49.90;;;27.21;30.94;99018.84;4984773;28;114686;-78
2023/07/17 10:14:13;;;;;;;;;;;26.90;50.00;;;27.19;30.83;99014.81;4985997;28;113806;-79
2023/07/17 10:16:42;;;;;;;;;;;26.80;49.80;;;27.20;30.66;99019.28;4970319;28;123640;-79
2023/07/17 10:19:09;;;;;;;;;;;26.90;49.70;;;27.22;30.80;99009.13;4986125;28;123964;-78
2023/07/17 10:21:52;;;;;;;;;;;26.90;49.60;;;27.27;30.29;99016.34;4989028;28;114603;-78
2023/07/17 10:24:22;;;;;;;;;;;26.90;49.60;;;27.29;30.08;99013.91;4984117;28;113629;-78
2023/07/17 10:26:49;;;;;;;;;;;26.90;49.00;;;27.26;30.10;99003.41;4986412;28;124206;-79
2023/07/17 10:29:15;;;;;;;;;;;26.90;48.80;;;27.25;29.83;98998.97;4988246;28;123987;-78
2023/07/17 10:31:50;;;;;;;;;;;26.90;48.60;;;27.27;29.92;99000.16;4985230;28;115594;-78
2023/07/17 10:34:19;;;;;;;;;;;26.90;48.70;;;27.28;29.90;98996.06;4989112;28;114905;-78
2023/07/17 10:36:49;;;;;;;;;;;26.90;48.80;;;27.31;30.14;99002.94;4987032;28;124318;-79
2023/07/17 10:39:17;;;;;;;;;;;26.90;48.60;;;27.31;29.65;98991.59;4990143;28;124441;-78
2023/07/17 10:41:43;;;;;;;;;;;26.90;49.10;;;27.31;30.14;98983.88;4988946;28;115277;-79
2023/07/17 10:44:20;;;;;;;;;;;26.90;48.70;;;27.36;29.75;98990.34;4987633;28;113543;-78
2023/07/17 10:46:47;;;;;;;;;;;27.00;48.60;;;27.37;29.94;98987.06;4984885;28;124456;-78
2023/07/17 10:49:18;;;;;;;;;;;27.00;48.50;;;27.38;29.75;98983.00;4993735;28;124236;-78
2023/07/17 10:51:49;;;;;;;;;;;27.00;48.40;;;27.39;29.60;98978.13;4980297;28;114398;-77
2023/07/17 10:54:18;;;;;;;;;;;27.30;48.20;;;27.41;29.87;98981.38;4977459;28;113736;-77
2023/07/17 10:56:47;;;;;;;;;;;27.10;48.40;;;27.41;29.86;98967.97;4988235;28;124359;-77
2023/07/17 10:59:13;;;;;;;;;;;27.10;48.50;;;27.41;29.68;98979.34;4990429;28;124055;-77
2023/07/17 11:01:40;;;;;;;;;;;27.10;48.30;;;27.38;29.28;98965.16;4990930;28;114479;-78
2023/07/17 11:04:09;;;;;;;;;;;27.10;47.50;;;27.34;29.03;98972.94;4991772;28;114108;-79
2023/07/17 11:06:35;;;;;;;;;;;27.00;47.40;;;27.31;29.37;98978.22;4988727;28;124133;-78
2023/07/17 11:09:02;;;;;;;;;;;27.00;47.20;;;27.28;29.24;98973.38;4991738;28;124144;-77